createdAt,value
2019-05-05T00:00:30.626Z,79.97
2019-05-05T00:01:30.597Z,79.86
2019-05-05T00:02:30.570Z,79.86
2019-05-05T00:03:30.593Z,80.18
2019-05-05T00:04:30.584Z,80.07
2019-05-05T00:05:30.561Z,80.38
2019-05-05T00:06:30.528Z,79.97
2019-05-05T00:07:30.527Z,79.58
2019-05-05T00:08:30.528Z,80.28
2019-05-05T00:09:30.518Z,80.28
2019-05-05T00:10:30.514Z,80.38
2019-05-05T00:11:30.509Z,80.42
2019-05-05T00:12:30.480Z,80.28
2019-05-05T00:13:30.451Z,80.07
2019-05-05T00:14:30.457Z,80.38
2019-05-05T00:15:30.454Z,80.49
2019-05-05T00:16:30.416Z,80.49
2019-05-05T00:17:30.409Z,80.18
2019-05-05T00:18:30.407Z,80.49
2019-05-05T00:19:33.251Z,80.49
2019-05-05T00:20:31.398Z,80.38
2019-05-05T00:21:30.363Z,80.38
2019-05-05T00:22:30.354Z,79.86
2019-05-05T00:23:30.355Z,80.04
2019-05-05T00:24:30.365Z,80.76
2019-05-05T00:25:30.324Z,80.38
2019-05-05T00:26:30.336Z,80.14
2019-05-05T00:27:30.331Z,80.55
2019-05-05T00:28:30.292Z,80.66
2019-05-05T00:29:30.276Z,80.04
2019-05-05T00:30:30.279Z,79.20
2019-05-05T00:31:30.254Z,79.72
2019-05-05T00:32:30.240Z,79.51
2019-05-05T00:33:30.233Z,79.10
2019-05-05T00:34:30.232Z,79.30
2019-05-05T00:35:30.242Z,79.20
2019-05-05T00:36:30.226Z,79.41
2019-05-05T00:37:30.200Z,79.51
2019-05-05T00:38:30.197Z,79.69
2019-05-05T00:39:30.168Z,79.83
2019-05-05T00:40:30.170Z,80.00
2019-05-05T00:41:30.164Z,80.52
2019-05-05T00:42:30.155Z,80.62
2019-05-05T00:43:30.125Z,80.31
2019-05-05T00:44:30.115Z,80.58
2019-05-05T00:45:30.128Z,80.83
2019-05-05T00:46:30.128Z,80.62
2019-05-05T00:47:30.080Z,81.35
2019-05-05T00:48:30.090Z,81.45
2019-05-05T00:49:37.408Z,81.30
2019-05-05T00:50:31.067Z,81.10
2019-05-05T00:51:30.037Z,81.04
2019-05-05T00:52:30.060Z,81.93
2019-05-05T00:53:30.033Z,82.07
2019-05-05T00:54:30.092Z,81.66
2019-05-05T00:55:30.009Z,81.66
2019-05-05T00:56:29.980Z,81.82
2019-05-05T00:57:29.972Z,81.87
2019-05-05T00:58:29.995Z,81.66
2019-05-05T00:59:29.962Z,81.87
2019-05-05T01:00:29.936Z,82.28
2019-05-05T01:01:29.929Z,82.18
2019-05-05T01:02:29.917Z,82.49
2019-05-05T01:03:29.916Z,82.65
2019-05-05T01:04:29.939Z,82.59
2019-05-05T01:05:29.893Z,82.76
2019-05-05T01:06:29.872Z,82.86
2019-05-05T01:07:29.881Z,81.82
2019-05-05T01:08:29.905Z,81.82
2019-05-05T01:09:29.870Z,82.34
2019-05-05T01:10:29.829Z,82.24
2019-05-05T01:11:29.841Z,82.34
2019-05-05T01:12:29.832Z,82.65
2019-05-05T01:13:29.838Z,81.79
2019-05-05T01:14:29.780Z,82.10
2019-05-05T01:15:29.794Z,80.99
2019-05-05T01:16:29.760Z,80.68
2019-05-05T01:17:29.750Z,81.20
2019-05-05T01:18:29.767Z,81.20
2019-05-05T01:19:29.727Z,81.30
2019-05-05T01:20:29.782Z,81.30
2019-05-05T01:21:29.713Z,81.62
2019-05-05T01:22:29.695Z,82.45
2019-05-05T01:23:29.683Z,81.82
2019-05-05T01:24:29.682Z,81.97
2019-05-05T01:25:29.689Z,82.03
2019-05-05T01:26:29.675Z,82.80
2019-05-05T01:27:29.647Z,83.42
2019-05-05T01:28:29.634Z,83.63
2019-05-05T01:29:29.646Z,83.22
2019-05-05T01:30:29.671Z,83.28
2019-05-05T01:31:29.614Z,83.32
2019-05-05T01:32:29.595Z,83.28
2019-05-05T01:33:29.595Z,83.32
2019-05-05T01:34:29.570Z,83.73
2019-05-05T01:35:29.582Z,83.63
2019-05-05T01:36:29.544Z,84.15
2019-05-05T01:37:29.531Z,83.73
2019-05-05T01:38:29.529Z,83.63
2019-05-05T01:39:29.536Z,83.73
2019-05-05T01:40:29.506Z,83.73
2019-05-05T01:41:29.512Z,84.19
2019-05-05T01:42:29.477Z,84.77
2019-05-05T01:43:29.476Z,85.39
2019-05-05T01:44:29.474Z,85.39
2019-05-05T01:45:29.472Z,84.98
2019-05-05T01:46:29.432Z,85.50
2019-05-05T01:47:29.452Z,85.39
2019-05-05T01:48:29.413Z,84.94
2019-05-05T01:49:29.399Z,84.73
2019-05-05T01:50:29.389Z,85.14
2019-05-05T01:51:29.401Z,84.83
2019-05-05T01:52:29.391Z,84.56
2019-05-05T01:53:29.353Z,85.25
2019-05-05T01:54:29.357Z,84.67
2019-05-05T01:55:29.356Z,85.14
2019-05-05T01:56:29.335Z,84.83
2019-05-05T01:57:29.331Z,84.83
2019-05-05T01:58:29.318Z,85.66
2019-05-05T01:59:29.315Z,85.66
2019-05-05T02:00:29.294Z,84.83
2019-05-05T02:01:29.269Z,85.73
2019-05-05T02:02:29.329Z,85.21
2019-05-05T02:03:29.287Z,85.42
2019-05-05T02:04:29.238Z,84.90
2019-05-05T02:05:29.225Z,85.00
2019-05-05T02:06:29.230Z,84.59
2019-05-05T02:07:29.213Z,84.48
2019-05-05T02:08:29.231Z,84.38
2019-05-05T02:09:29.192Z,85.00
2019-05-05T02:10:29.170Z,85.31
2019-05-05T02:11:29.161Z,85.21
2019-05-05T02:12:29.152Z,84.38
2019-05-05T02:13:29.142Z,84.17
2019-05-05T02:14:29.170Z,84.48
2019-05-05T02:15:29.144Z,84.31
2019-05-05T02:16:29.106Z,84.52
2019-05-05T02:17:29.110Z,84.73
2019-05-05T02:18:29.081Z,84.69
2019-05-05T02:19:29.081Z,85.35
2019-05-05T02:20:31.289Z,85.66
2019-05-05T02:21:29.069Z,85.46
2019-05-05T02:22:29.048Z,85.42
2019-05-05T02:23:29.073Z,84.94
2019-05-05T02:24:29.017Z,84.52
2019-05-05T02:25:29.018Z,84.52
2019-05-05T02:26:29.009Z,85.25
2019-05-05T02:27:28.987Z,85.25
2019-05-05T02:28:29.019Z,84.63
2019-05-05T02:29:28.965Z,84.73
2019-05-05T02:30:28.966Z,84.83
2019-05-05T02:31:28.944Z,85.04
2019-05-05T02:32:28.975Z,85.66
2019-05-05T02:33:28.955Z,85.50
2019-05-05T02:34:28.924Z,85.19
2019-05-05T02:35:28.918Z,85.29
2019-05-05T02:36:28.919Z,85.29
2019-05-05T02:37:28.882Z,85.71
2019-05-05T02:38:28.876Z,85.46
2019-05-05T02:39:28.856Z,85.46
2019-05-05T02:40:28.885Z,85.29
2019-05-05T02:41:28.832Z,85.50
2019-05-05T02:42:28.834Z,85.71
2019-05-05T02:43:28.817Z,85.60
2019-05-05T02:44:28.814Z,85.33
2019-05-05T02:45:28.835Z,86.16
2019-05-05T02:46:28.799Z,86.36
2019-05-05T02:47:28.774Z,86.05
2019-05-05T02:48:28.766Z,86.47
2019-05-05T02:49:28.752Z,86.47
2019-05-05T02:50:47.283Z,86.78
2019-05-05T02:51:29.742Z,86.36
2019-05-05T02:52:28.715Z,86.57
2019-05-05T02:53:28.707Z,86.57
2019-05-05T02:54:28.716Z,86.68
2019-05-05T02:55:28.725Z,86.78
2019-05-05T02:56:28.713Z,86.68
2019-05-05T02:57:28.707Z,86.57
2019-05-05T02:58:28.647Z,86.88
2019-05-05T02:59:28.678Z,86.57
2019-05-05T03:00:28.634Z,86.47
2019-05-05T03:01:28.635Z,86.47
2019-05-05T03:02:28.605Z,86.68
2019-05-05T03:03:28.618Z,86.68
2019-05-05T03:04:28.605Z,86.68
2019-05-05T03:05:28.614Z,87.30
2019-05-05T03:06:28.584Z,87.19
2019-05-05T03:07:28.557Z,87.30
2019-05-05T03:08:28.553Z,86.99
2019-05-05T03:09:28.527Z,87.40
2019-05-05T03:10:28.520Z,87.40
2019-05-05T03:11:28.506Z,87.30
2019-05-05T03:12:28.515Z,87.19
2019-05-05T03:13:28.515Z,87.30
2019-05-05T03:14:28.474Z,87.40
2019-05-05T03:15:28.478Z,87.09
2019-05-05T03:16:28.450Z,87.30
2019-05-05T03:17:28.441Z,87.30
2019-05-05T03:18:28.493Z,86.99
2019-05-05T03:19:28.432Z,87.71
2019-05-05T03:20:28.408Z,87.19
2019-05-05T03:21:28.399Z,87.30
2019-05-05T03:22:28.420Z,87.19
2019-05-05T03:23:28.416Z,87.61
2019-05-05T03:24:28.382Z,87.40
2019-05-05T03:25:28.349Z,86.78
2019-05-05T03:26:28.375Z,86.78
2019-05-05T03:27:28.359Z,87.82
2019-05-05T03:28:28.366Z,87.92
2019-05-05T03:29:28.354Z,87.92
2019-05-05T03:30:28.299Z,87.61
2019-05-05T03:31:28.297Z,87.71
2019-05-05T03:32:28.281Z,87.40
2019-05-05T03:33:28.282Z,87.40
2019-05-05T03:34:28.258Z,87.03
2019-05-05T03:35:28.280Z,87.30
2019-05-05T03:36:28.236Z,87.03
2019-05-05T03:37:28.242Z,87.03
2019-05-05T03:38:28.209Z,87.34
2019-05-05T03:39:28.204Z,86.88
2019-05-05T03:40:28.196Z,86.78
2019-05-05T03:41:28.246Z,86.72
2019-05-05T03:42:28.164Z,87.24
2019-05-05T03:43:28.152Z,87.45
2019-05-05T03:44:28.147Z,87.45
2019-05-05T03:45:28.153Z,87.19
2019-05-05T03:46:28.122Z,87.55
2019-05-05T03:47:28.159Z,87.51
2019-05-05T03:48:28.099Z,86.88
2019-05-05T03:49:28.110Z,87.71
2019-05-05T03:50:28.076Z,86.61
2019-05-05T03:51:28.072Z,87.45
2019-05-05T03:52:28.057Z,87.34
2019-05-05T03:53:28.060Z,87.24
2019-05-05T03:54:28.047Z,87.34
2019-05-05T03:55:28.060Z,87.24
2019-05-05T03:56:28.032Z,86.93
2019-05-05T03:57:28.036Z,87.13
2019-05-05T03:58:27.994Z,86.72
2019-05-05T03:59:28.006Z,87.65
2019-05-05T04:00:28.026Z,87.45
2019-05-05T04:01:27.963Z,87.86
2019-05-05T04:02:27.957Z,87.86
2019-05-05T04:03:27.961Z,87.79
2019-05-05T04:04:27.927Z,88.38
2019-05-05T04:05:27.937Z,88.59
2019-05-05T04:06:27.905Z,88.17
2019-05-05T04:07:27.906Z,88.13
2019-05-05T04:08:27.883Z,88.90
2019-05-05T04:09:27.874Z,88.69
2019-05-05T04:10:27.864Z,88.85
2019-05-05T04:11:27.871Z,88.54
2019-05-05T04:12:27.865Z,88.65
2019-05-05T04:13:27.845Z,88.65
2019-05-05T04:14:27.839Z,88.20
2019-05-05T04:15:27.806Z,88.20
2019-05-05T04:16:27.805Z,88.13
2019-05-05T04:17:27.793Z,88.20
2019-05-05T04:18:27.819Z,88.61
2019-05-05T04:19:27.776Z,88.71
2019-05-05T04:20:27.770Z,88.40
2019-05-05T04:21:33.193Z,88.61
2019-05-05T04:22:28.745Z,88.40
2019-05-05T04:23:27.741Z,88.20
2019-05-05T04:24:27.707Z,88.26
2019-05-05T04:25:27.705Z,88.20
2019-05-05T04:26:27.740Z,88.40
2019-05-05T04:27:27.716Z,88.20
2019-05-05T04:28:27.690Z,88.30
2019-05-05T04:29:27.679Z,88.20
2019-05-05T04:30:27.667Z,88.51
2019-05-05T04:31:27.638Z,88.36
2019-05-05T04:32:27.624Z,88.15
2019-05-05T04:33:27.630Z,88.09
2019-05-05T04:34:27.634Z,88.15
2019-05-05T04:35:27.593Z,88.15
2019-05-05T04:36:27.589Z,88.05
2019-05-05T04:37:27.594Z,88.46
2019-05-05T04:38:27.563Z,88.36
2019-05-05T04:39:27.550Z,88.15
2019-05-05T04:40:27.530Z,88.57
2019-05-05T04:41:27.559Z,88.05
2019-05-05T04:42:27.523Z,88.57
2019-05-05T04:43:27.505Z,88.26
2019-05-05T04:44:27.495Z,88.46
2019-05-05T04:45:27.475Z,88.36
2019-05-05T04:46:27.465Z,88.57
2019-05-05T04:47:27.469Z,88.26
2019-05-05T04:48:27.444Z,87.95
2019-05-05T04:49:27.435Z,88.36
2019-05-05T04:50:27.460Z,88.73
2019-05-05T04:51:27.457Z,89.40
2019-05-05T04:52:27.415Z,89.09
2019-05-05T04:53:27.415Z,88.67
2019-05-05T04:54:27.386Z,89.50
2019-05-05T04:55:27.368Z,89.77
2019-05-05T04:56:29.833Z,89.46
2019-05-05T04:57:27.351Z,89.46
2019-05-05T04:58:27.334Z,89.56
2019-05-05T04:59:27.389Z,88.84
2019-05-05T05:00:27.316Z,88.53
2019-05-05T05:01:27.307Z,88.94
2019-05-05T05:02:27.300Z,89.77
2019-05-05T05:03:27.341Z,89.62
2019-05-05T05:04:27.282Z,89.15
2019-05-05T05:05:27.259Z,89.15
2019-05-05T05:06:27.248Z,89.25
2019-05-05T05:07:27.237Z,89.25
2019-05-05T05:08:27.282Z,89.04
2019-05-05T05:09:27.229Z,89.25
2019-05-05T05:10:27.202Z,89.25
2019-05-05T05:11:27.194Z,89.04
2019-05-05T05:12:27.191Z,89.25
2019-05-05T05:13:27.176Z,89.15
2019-05-05T05:14:27.177Z,88.59
2019-05-05T05:15:27.161Z,89.52
2019-05-05T05:16:27.139Z,89.11
2019-05-05T05:17:27.128Z,89.73
2019-05-05T05:18:27.116Z,89.00
2019-05-05T05:19:27.155Z,89.17
2019-05-05T05:20:27.123Z,88.96
2019-05-05T05:21:27.086Z,88.65
2019-05-05T05:22:27.093Z,88.76
2019-05-05T05:23:29.546Z,89.69
2019-05-05T05:24:27.066Z,89.28
2019-05-05T05:25:27.052Z,88.96
2019-05-05T05:26:27.074Z,88.34
2019-05-05T05:27:27.019Z,87.68
2019-05-05T05:28:27.021Z,88.24
2019-05-05T05:29:27.035Z,88.34
2019-05-05T05:30:27.027Z,88.45
2019-05-05T05:31:26.991Z,88.55
2019-05-05T05:32:26.998Z,88.45
2019-05-05T05:33:26.954Z,88.65
2019-05-05T05:34:26.946Z,88.55
2019-05-05T05:35:26.953Z,88.61
2019-05-05T05:36:26.930Z,88.45
2019-05-05T05:37:26.942Z,87.93
2019-05-05T05:38:26.919Z,88.03
2019-05-05T05:39:26.896Z,88.09
2019-05-05T05:40:26.880Z,88.30
2019-05-05T05:41:26.896Z,88.30
2019-05-05T05:42:26.858Z,87.99
2019-05-05T05:43:26.867Z,87.68
2019-05-05T05:44:28.155Z,87.78
2019-05-05T05:45:26.836Z,87.78
2019-05-05T05:46:26.837Z,87.57
2019-05-05T05:47:26.832Z,87.88
2019-05-05T05:48:26.793Z,87.33
2019-05-05T05:49:26.840Z,87.64
2019-05-05T05:50:26.798Z,87.23
2019-05-05T05:51:26.762Z,87.74
2019-05-05T05:52:26.774Z,87.64
2019-05-05T05:53:26.738Z,87.54
2019-05-05T05:54:26.756Z,87.85
2019-05-05T05:55:26.735Z,87.85
2019-05-05T05:56:26.723Z,87.23
2019-05-05T05:57:26.711Z,87.08
2019-05-05T05:58:26.687Z,87.70
2019-05-05T05:59:26.677Z,87.49
2019-05-05T06:00:26.664Z,87.60
2019-05-05T06:01:26.670Z,87.91
2019-05-05T06:02:26.637Z,88.12
2019-05-05T06:03:26.668Z,87.64
2019-05-05T06:04:26.629Z,88.16
2019-05-05T06:05:26.603Z,88.12
2019-05-05T06:06:26.608Z,88.22
2019-05-05T06:07:26.593Z,88.22
2019-05-05T06:08:26.568Z,87.81
2019-05-05T06:09:26.561Z,87.81
2019-05-05T06:10:27.459Z,87.70
2019-05-05T06:11:26.539Z,88.12
2019-05-05T06:12:26.547Z,87.91
2019-05-05T06:13:26.549Z,87.87
2019-05-05T06:14:26.517Z,87.97
2019-05-05T06:15:26.512Z,87.97
2019-05-05T06:16:26.486Z,87.35
2019-05-05T06:17:26.470Z,87.25
2019-05-05T06:18:26.479Z,87.97
2019-05-05T06:19:26.491Z,87.66
2019-05-05T06:20:26.440Z,87.46
2019-05-05T06:21:26.467Z,87.56
2019-05-05T06:22:29.233Z,87.52
2019-05-05T06:23:26.435Z,86.69
2019-05-05T06:24:26.428Z,86.18
2019-05-05T06:25:26.853Z,86.38
2019-05-05T06:26:26.386Z,86.38
2019-05-05T06:27:26.370Z,86.90
2019-05-05T06:28:26.354Z,87.10
2019-05-05T06:29:26.356Z,86.90
2019-05-05T06:30:26.358Z,86.18
2019-05-05T06:31:26.337Z,85.76
2019-05-05T06:32:26.310Z,85.83
2019-05-05T06:33:26.307Z,86.24
2019-05-05T06:34:26.285Z,86.34
2019-05-05T06:35:26.288Z,85.62
2019-05-05T06:36:26.273Z,85.78
2019-05-05T06:37:26.258Z,86.30
2019-05-05T06:38:26.255Z,86.30
2019-05-05T06:39:26.232Z,85.99
2019-05-05T06:40:26.234Z,86.05
2019-05-05T06:41:26.236Z,85.64
2019-05-05T06:42:26.200Z,85.75
2019-05-05T06:43:26.216Z,85.64
2019-05-05T06:44:26.199Z,85.39
2019-05-05T06:45:26.200Z,85.09
2019-05-05T06:46:26.169Z,84.47
2019-05-05T06:47:26.155Z,84.01
2019-05-05T06:48:26.149Z,84.12
2019-05-05T06:49:26.167Z,84.12
2019-05-05T06:50:26.121Z,84.12
2019-05-05T06:51:26.106Z,83.09
2019-05-05T06:52:26.173Z,82.06
2019-05-05T06:53:26.101Z,81.44
2019-05-05T06:54:26.117Z,82.89
2019-05-05T06:55:26.097Z,81.34
2019-05-05T06:56:26.048Z,80.62
2019-05-05T06:57:26.060Z,81.13
2019-05-05T06:58:26.070Z,82.16
2019-05-05T06:59:26.049Z,83.26
2019-05-05T07:00:26.022Z,83.05
2019-05-05T07:01:26.010Z,83.26
2019-05-05T07:02:25.994Z,82.12
2019-05-05T07:03:26.036Z,81.30
2019-05-05T07:04:26.008Z,81.30
2019-05-05T07:05:25.957Z,81.61
2019-05-05T07:06:25.950Z,80.85
2019-05-05T07:07:25.967Z,81.61
2019-05-05T07:08:25.965Z,80.68
2019-05-05T07:09:25.939Z,80.23
2019-05-05T07:10:25.975Z,80.85
2019-05-05T07:11:25.907Z,80.65
2019-05-05T07:12:25.880Z,80.95
2019-05-05T07:13:25.916Z,80.33
2019-05-05T07:14:25.870Z,79.30
2019-05-05T07:15:25.878Z,79.68
2019-05-05T07:16:25.928Z,79.68
2019-05-05T07:17:25.872Z,80.61
2019-05-05T07:18:25.816Z,80.75
2019-05-05T07:19:25.815Z,80.65
2019-05-05T07:20:25.818Z,80.65
2019-05-05T07:21:25.794Z,81.37
2019-05-05T07:22:25.790Z,81.23
2019-05-05T07:23:25.767Z,80.61
2019-05-05T07:24:25.734Z,80.09
2019-05-05T07:25:25.745Z,80.61
2019-05-05T07:26:25.774Z,79.68
2019-05-05T07:27:25.735Z,79.54
2019-05-05T07:28:25.709Z,79.54
2019-05-05T07:29:25.709Z,77.89
2019-05-05T07:30:25.708Z,78.51
2019-05-05T07:31:25.676Z,77.28
2019-05-05T07:32:25.682Z,78.82
2019-05-05T07:33:25.651Z,79.85
2019-05-05T07:34:25.720Z,79.44
2019-05-05T07:35:25.640Z,79.09
2019-05-05T07:36:25.797Z,77.65
2019-05-05T07:37:25.743Z,77.48
2019-05-05T07:38:25.753Z,77.55
2019-05-05T07:39:25.675Z,77.96
2019-05-05T07:40:25.609Z,76.52
2019-05-05T07:41:25.629Z,77.10
2019-05-05T07:42:25.622Z,78.13
2019-05-05T07:43:25.546Z,77.72
2019-05-05T07:44:29.609Z,77.10
2019-05-05T07:45:25.939Z,77.00
2019-05-05T07:46:25.504Z,77.58
2019-05-05T07:47:25.491Z,77.58
2019-05-05T07:48:25.490Z,77.48
2019-05-05T07:49:25.473Z,76.65
2019-05-05T07:50:31.905Z,76.69
2019-05-05T07:51:26.431Z,77.06
2019-05-05T07:52:25.458Z,76.04
2019-05-05T07:53:25.432Z,76.35
2019-05-05T07:54:25.425Z,76.76
2019-05-05T07:55:25.462Z,76.45
2019-05-05T07:56:25.425Z,75.29
2019-05-05T07:57:25.401Z,74.67
2019-05-05T07:58:25.469Z,74.57
2019-05-05T07:59:25.378Z,76.38
2019-05-05T08:00:25.429Z,76.14
2019-05-05T08:01:25.394Z,75.15
2019-05-05T08:02:25.373Z,74.19
2019-05-05T08:03:25.338Z,76.04
2019-05-05T08:04:25.331Z,73.47
2019-05-05T08:05:25.433Z,74.46
2019-05-05T08:06:25.356Z,72.72
2019-05-05T08:07:25.280Z,73.64
2019-05-05T08:08:25.590Z,71.90
2019-05-05T08:09:25.270Z,72.99
2019-05-05T08:10:25.252Z,73.40
2019-05-05T08:11:25.219Z,71.97
2019-05-05T08:12:25.262Z,71.15
2019-05-05T08:13:25.269Z,71.93
2019-05-05T08:14:25.226Z,71.73
2019-05-05T08:15:25.260Z,71.04
2019-05-05T08:16:25.246Z,70.70
2019-05-05T08:17:25.176Z,70.09
2019-05-05T08:18:25.133Z,69.27
2019-05-05T08:19:25.138Z,69.98
2019-05-05T08:20:25.149Z,70.98
2019-05-05T08:21:25.101Z,71.56
2019-05-05T08:22:25.090Z,71.25
2019-05-05T08:23:31.774Z,70.20
2019-05-05T08:24:26.084Z,66.61
2019-05-05T08:25:36.155Z,65.46
2019-05-05T08:26:26.047Z,67.40
2019-05-05T08:27:25.079Z,66.69
2019-05-05T08:28:25.038Z,66.07
2019-05-05T08:29:25.036Z,66.78
2019-05-05T08:30:25.018Z,63.51
2019-05-05T08:31:25.083Z,65.66
2019-05-05T08:32:24.985Z,65.25
2019-05-05T08:33:24.970Z,65.01
2019-05-05T08:34:24.958Z,67.08
2019-05-05T08:35:24.983Z,68.52
2019-05-05T08:36:25.011Z,68.68
2019-05-05T08:37:24.944Z,67.66
2019-05-05T08:38:24.923Z,69.26
2019-05-05T08:39:24.909Z,70.18
2019-05-05T08:40:24.908Z,71.24
2019-05-05T08:41:24.892Z,72.13
2019-05-05T08:42:24.910Z,74.74
2019-05-05T08:43:24.900Z,75.29
2019-05-05T08:44:24.855Z,75.84
2019-05-05T08:45:26.733Z,76.49
2019-05-05T08:46:24.854Z,77.94
2019-05-05T08:47:28.014Z,79.11
2019-05-05T08:48:24.824Z,79.58
2019-05-05T08:49:24.836Z,80.24
2019-05-05T08:50:26.998Z,80.76
2019-05-05T08:51:24.810Z,82.40
2019-05-05T08:52:24.769Z,83.19
2019-05-05T08:53:24.780Z,84.01
2019-05-05T08:54:24.741Z,83.09
2019-05-05T08:55:28.117Z,82.26
2019-05-05T08:56:24.809Z,82.54
2019-05-05T08:57:24.831Z,82.81
2019-05-05T08:58:24.756Z,83.49
2019-05-05T08:59:24.801Z,83.11
2019-05-05T09:00:24.679Z,82.96
2019-05-05T09:01:24.751Z,82.92
2019-05-05T09:02:24.752Z,83.03
2019-05-05T09:03:24.660Z,84.05
2019-05-05T09:04:24.797Z,82.68
2019-05-05T09:05:24.657Z,81.82
2019-05-05T09:06:24.640Z,82.13
2019-05-05T09:07:24.614Z,82.81
2019-05-05T09:08:24.609Z,79.80
2019-05-05T09:09:24.702Z,79.49
2019-05-05T09:10:24.796Z,77.44
2019-05-05T09:11:24.739Z,77.95
2019-05-05T09:12:24.571Z,75.90
2019-05-05T09:13:24.759Z,77.13
2019-05-05T09:14:24.599Z,77.13
2019-05-05T09:15:24.518Z,77.54
2019-05-05T09:16:24.524Z,75.69
2019-05-05T09:17:27.944Z,77.50
2019-05-05T09:18:24.727Z,75.93
2019-05-05T09:19:24.476Z,77.67
2019-05-05T09:20:24.457Z,74.90
2019-05-05T09:21:24.448Z,74.15
2019-05-05T09:22:24.668Z,75.14
2019-05-05T09:23:24.455Z,75.89
2019-05-05T09:24:25.021Z,74.15
2019-05-05T09:25:24.428Z,70.75
2019-05-05T09:26:24.388Z,71.12
2019-05-05T09:27:24.883Z,73.10
2019-05-05T09:28:24.433Z,69.86
2019-05-05T09:29:24.360Z,69.93
2019-05-05T09:30:24.663Z,70.07
2019-05-05T09:31:24.395Z,69.56
2019-05-05T09:32:24.548Z,69.43
2019-05-05T09:33:33.757Z,62.77
2019-05-05T09:34:29.967Z,58.89
2019-05-05T09:35:27.037Z,62.49
2019-05-05T09:36:24.750Z,60.96
2019-05-05T09:37:26.725Z,63.03
2019-05-05T09:38:25.402Z,66.94
2019-05-05T09:39:24.632Z,67.99
2019-05-05T09:40:24.872Z,69.86
2019-05-05T09:41:24.315Z,70.06
2019-05-05T09:42:27.229Z,70.00
2019-05-05T09:43:28.216Z,67.03
2019-05-05T09:44:24.322Z,69.55
2019-05-05T09:45:25.067Z,68.42
2019-05-05T09:46:25.663Z,68.46
2019-05-05T09:54:24.931Z,71.28
2019-05-05T09:55:07.088Z,70.84
2019-05-05T09:56:06.920Z,72.27
2019-05-05T09:57:07.019Z,72.31
2019-05-05T09:58:07.281Z,69.20
2019-05-05T09:59:07.379Z,69.99
2019-05-05T10:00:07.496Z,67.81
2019-05-05T10:01:07.196Z,68.63
2019-05-05T10:02:08.150Z,67.57
2019-05-05T10:03:07.463Z,66.72
2019-05-05T10:04:07.619Z,68.87
2019-05-05T10:05:06.937Z,69.52
2019-05-05T10:06:06.819Z,67.34
2019-05-05T10:07:06.741Z,67.34
2019-05-05T10:08:06.726Z,66.18
2019-05-05T10:09:06.707Z,65.47
2019-05-05T10:10:08.202Z,63.53
2019-05-05T10:11:06.699Z,63.67
2019-05-05T10:12:06.688Z,65.00
2019-05-05T10:13:06.691Z,60.57
2019-05-05T10:14:06.680Z,62.33
2019-05-05T10:15:07.539Z,63.69
2019-05-05T10:16:06.645Z,62.46
2019-05-05T10:17:06.652Z,62.77
2019-05-05T10:18:06.612Z,60.93
2019-05-05T10:19:06.629Z,61.65
2019-05-05T10:20:06.590Z,61.21
2019-05-05T10:21:06.614Z,63.66
2019-05-05T10:22:06.614Z,63.83
2019-05-05T10:23:06.555Z,64.65
2019-05-05T10:24:06.541Z,62.92
2019-05-05T10:25:06.547Z,63.66
2019-05-05T10:26:06.521Z,62.63
2019-05-05T10:27:06.561Z,62.71
2019-05-05T10:28:06.531Z,61.00
2019-05-05T10:29:06.487Z,60.90
2019-05-05T10:30:06.475Z,60.64
2019-05-05T10:31:06.465Z,62.82
2019-05-05T10:32:06.472Z,63.54
2019-05-05T10:33:06.441Z,62.80
2019-05-05T10:34:06.472Z,61.44
2019-05-05T10:35:06.480Z,61.14
2019-05-05T10:36:06.422Z,60.98
2019-05-05T10:37:06.413Z,60.37
2019-05-05T10:38:06.405Z,60.75
2019-05-05T10:39:06.375Z,57.90
2019-05-05T10:40:06.391Z,58.78
2019-05-05T10:41:06.428Z,58.58
2019-05-05T10:42:06.343Z,58.38
2019-05-05T10:43:06.333Z,59.98
2019-05-05T10:44:06.340Z,57.95
2019-05-05T10:45:06.316Z,59.06
2019-05-05T10:46:06.305Z,53.67
2019-05-05T10:47:06.321Z,56.82
2019-05-05T10:48:06.276Z,57.43
2019-05-05T10:49:06.284Z,57.34
2019-05-05T10:50:06.253Z,54.72
2019-05-05T10:51:06.253Z,59.27
2019-05-05T10:52:06.252Z,57.54
2019-05-05T10:53:06.254Z,55.30
2019-05-05T10:54:06.258Z,54.05
2019-05-05T10:55:06.224Z,56.09
2019-05-05T10:56:06.225Z,56.09
2019-05-05T10:57:06.178Z,53.75
2019-05-05T10:58:06.205Z,58.50
2019-05-05T10:59:06.217Z,53.14
2019-05-05T11:00:12.312Z,57.51
2019-05-05T11:01:07.133Z,55.33
2019-05-05T11:02:06.128Z,54.85
2019-05-05T11:03:06.193Z,54.41
2019-05-05T11:04:06.150Z,57.56
2019-05-05T11:05:06.132Z,57.95
2019-05-05T11:06:06.355Z,53.59
2019-05-05T11:07:06.119Z,56.24
2019-05-05T11:08:06.284Z,57.97
2019-05-05T11:09:06.228Z,58.07
2019-05-05T11:10:06.078Z,57.13
2019-05-05T11:11:06.068Z,58.56
2019-05-05T11:12:06.007Z,56.12
2019-05-05T11:13:06.004Z,58.35
2019-05-05T11:14:06.002Z,57.23
2019-05-05T11:15:05.983Z,58.73
2019-05-05T11:16:05.973Z,54.16
2019-05-05T11:17:06.000Z,58.22
2019-05-05T11:18:16.590Z,57.86
2019-05-05T11:19:05.990Z,57.15
2019-05-05T11:20:14.308Z,55.32
2019-05-05T11:21:05.901Z,52.20
2019-05-05T11:22:05.892Z,51.49
2019-05-05T11:23:05.896Z,51.67
2019-05-05T11:24:05.885Z,55.71
2019-05-05T11:25:05.858Z,56.72
2019-05-05T11:26:05.880Z,57.03
2019-05-05T11:27:05.838Z,52.20
2019-05-05T11:28:05.832Z,52.03
2019-05-05T11:29:05.816Z,51.67
2019-05-05T11:30:05.809Z,51.79
2019-05-05T11:31:05.794Z,55.00
2019-05-05T11:32:05.814Z,54.72
2019-05-05T11:33:05.774Z,54.13
2019-05-05T11:34:05.761Z,57.32
2019-05-05T11:35:05.749Z,60.30
2019-05-05T11:36:05.744Z,60.64
2019-05-05T11:37:05.731Z,57.81
2019-05-05T11:38:05.839Z,58.01
2019-05-05T11:39:05.906Z,57.81
2019-05-05T11:40:05.695Z,60.16
2019-05-05T11:41:05.681Z,58.83
2019-05-05T11:42:05.674Z,58.55
2019-05-05T11:43:05.678Z,58.25
2019-05-05T11:44:05.666Z,60.19
2019-05-05T11:45:05.640Z,58.34
2019-05-05T11:46:05.636Z,59.37
2019-05-05T11:47:05.614Z,59.16
2019-05-05T11:48:05.604Z,57.12
2019-05-05T11:49:05.610Z,57.12
2019-05-05T11:50:05.602Z,59.37
2019-05-05T11:51:05.577Z,56.51
2019-05-05T11:52:05.578Z,55.56
2019-05-05T11:53:05.551Z,58.52
2019-05-05T11:54:05.541Z,58.32
2019-05-05T11:55:11.677Z,59.64
2019-05-05T11:56:06.526Z,56.99
2019-05-05T11:57:05.503Z,58.01
2019-05-05T11:58:05.497Z,58.80
2019-05-05T11:59:05.491Z,60.26
2019-05-05T12:00:05.469Z,59.62
2019-05-05T12:01:05.471Z,58.32
2019-05-05T12:02:05.493Z,60.64
2019-05-05T12:03:05.436Z,59.41
2019-05-05T12:04:05.471Z,59.62
2019-05-05T12:05:05.416Z,59.82
2019-05-05T12:06:05.437Z,58.57
2019-05-05T12:07:05.463Z,61.80
2019-05-05T12:08:05.432Z,57.93
2019-05-05T12:09:05.404Z,58.54
2019-05-05T12:10:05.426Z,60.66
2019-05-05T12:11:05.381Z,56.17
2019-05-05T12:12:05.362Z,57.93
2019-05-05T12:13:05.370Z,59.16
2019-05-05T12:14:05.316Z,57.83
2019-05-05T12:15:05.300Z,56.30
2019-05-05T12:16:05.292Z,57.80
2019-05-05T12:17:05.312Z,58.89
2019-05-05T12:18:05.304Z,58.05
2019-05-05T12:19:05.258Z,57.44
2019-05-05T12:20:05.249Z,55.61
2019-05-05T12:21:05.434Z,56.02
2019-05-05T12:22:05.239Z,54.59
2019-05-05T12:23:05.231Z,55.41
2019-05-05T12:24:05.232Z,53.98
2019-05-05T12:25:05.261Z,54.18
2019-05-05T12:26:05.206Z,54.18
2019-05-05T12:27:05.168Z,52.25
2019-05-05T12:28:05.159Z,51.64
2019-05-05T12:29:05.147Z,55.30
2019-05-05T12:30:05.144Z,54.08
2019-05-05T12:31:05.179Z,51.46
2019-05-05T12:32:05.118Z,54.11
2019-05-05T12:33:05.106Z,55.94
2019-05-05T12:34:05.088Z,56.15
2019-05-05T12:35:05.080Z,56.02
2019-05-05T12:36:05.068Z,54.92
2019-05-05T12:37:05.377Z,54.18
2019-05-05T12:38:05.047Z,54.18
2019-05-05T12:39:05.049Z,54.59
2019-05-05T12:40:05.026Z,54.77
2019-05-05T12:41:05.037Z,54.05
2019-05-05T12:42:05.145Z,55.66
2019-05-05T12:43:04.994Z,52.00
2019-05-05T12:44:04.991Z,52.20
2019-05-05T12:45:04.975Z,54.33
2019-05-05T12:46:04.960Z,52.20
2019-05-05T12:47:04.948Z,52.50
2019-05-05T12:48:04.969Z,53.04
2019-05-05T12:49:04.970Z,53.24
2019-05-05T12:50:04.912Z,53.65
2019-05-05T12:51:04.942Z,53.37
2019-05-05T12:52:04.906Z,52.43
2019-05-05T12:53:04.889Z,53.16
2019-05-05T12:54:04.910Z,51.94
2019-05-05T12:55:05.170Z,53.37
2019-05-05T12:56:04.890Z,50.82
2019-05-05T12:57:04.839Z,51.05
2019-05-05T12:58:04.825Z,53.59
2019-05-05T12:59:04.855Z,53.98